Time;durP1;ratioP1;P1;durP2;ratioP2;P2;SDS_P1;SDS_P2;PMS_P1;PMS_P2;Temp;Humidity;BMP_temperature;BMP_pressure;BME280_temperature;BME280_humidity;BME280_pressure;Samples;Min_cycle;Max_cycle;Signal;HPM_P1;HPM_P2
2021/01/12 00:01:44;;;;;;;1.83;1.47;;;2.80;99.90;;;;;;5063478;28;20186;-84
2021/01/12 00:04:11;;;;;;;4.03;2.43;;;2.80;99.90;;;;;;5079862;28;20217;-82
2021/01/12 00:06:37;;;;;;;2.47;1.67;;;2.70;99.90;;;;;;5066426;28;20209;-82
2021/01/12 00:09:03;;;;;;;2.97;2.00;;;2.80;99.90;;;;;;5066378;28;20228;-81
2021/01/12 00:11:29;;;;;;;2.70;1.83;;;2.80;99.90;;;;;;5065294;28;20243;-81
2021/01/12 00:13:55;;;;;;;2.60;1.70;;;2.80;99.90;;;;;;5067651;28;20197;-80
2021/01/12 00:16:20;;;;;;;3.30;2.20;;;2.80;99.90;;;;;;5066123;28;20213;-81
2021/01/12 00:18:47;;;;;;;2.43;2.00;;;2.80;99.90;;;;;;5083016;28;20300;-81
2021/01/12 00:21:13;;;;;;;1.33;1.20;;;2.70;99.90;;;;;;5066705;28;20189;-85
2021/01/12 00:23:39;;;;;;;2.10;1.60;;;2.70;99.90;;;;;;5066419;28;20193;-83
2021/01/12 00:26:07;;;;;;;1.60;1.33;;;2.70;99.90;;;;;;5082598;28;20263;-84
2021/01/12 00:28:36;;;;;;;1.57;1.40;;;2.80;99.90;;;;;;5083380;28;20562;-81
2021/01/12 00:31:05;;;;;;;1.63;1.53;;;2.80;99.90;;;;;;5066687;28;20194;-82
2021/01/12 00:33:32;;;;;;;1.70;1.50;;;2.80;99.90;;;;;;5066365;28;20190;-82
2021/01/12 00:36:06;;;;;;;1.70;1.60;;;2.70;99.90;;;;;;5065738;28;20209;-81
2021/01/12 00:38:31;;;;;;;3.03;1.63;;;2.80;99.90;;;;;;5066301;28;20197;-82
2021/01/12 00:40:57;;;;;;;1.17;1.03;;;2.70;99.90;;;;;;5067492;28;20235;-82
2021/01/12 00:43:24;;;;;;;2.53;2.13;;;2.80;99.90;;;;;;5066426;28;20225;-82
2021/01/12 00:45:51;;;;;;;2.10;1.70;;;2.80;99.90;;;;;;5065872;28;20213;-81
2021/01/12 00:48:16;;;;;;;2.60;1.90;;;2.80;99.90;;;;;;5067377;28;20801;-82
2021/01/12 00:50:42;;;;;;;2.07;1.77;;;2.80;99.90;;;;;;5066438;28;20292;-83
2021/01/12 00:53:07;;;;;;;2.37;1.97;;;2.70;99.90;;;;;;5066270;28;20304;-82
2021/01/12 00:55:33;;;;;;;1.87;1.57;;;2.80;99.90;;;;;;5065751;28;21188;-83
2021/01/12 00:57:58;;;;;;;1.57;1.40;;;2.80;99.90;;;;;;5066013;28;20205;-84
2021/01/12 01:00:24;;;;;;;1.67;1.50;;;2.80;99.90;;;;;;5067528;28;20186;-84
2021/01/12 01:02:50;;;;;;;2.40;1.67;;;2.80;99.90;;;;;;5067122;28;20258;-82
2021/01/12 01:05:15;;;;;;;1.33;1.20;;;2.80;99.90;;;;;;5065227;28;21221;-82
2021/01/12 01:07:41;;;;;;;2.43;1.80;;;2.80;99.90;;;;;;5066311;28;20268;-81
2021/01/12 01:10:07;;;;;;;1.83;1.47;;;2.80;99.90;;;;;;5067193;28;20278;-85
2021/01/12 01:12:33;;;;;;;1.30;1.20;;;2.80;99.90;;;;;;5066203;28;20273;-81
2021/01/12 01:14:58;;;;;;;1.67;1.50;;;2.70;99.90;;;;;;5065149;28;20308;-83
2021/01/12 01:17:24;;;;;;;1.50;1.40;;;2.80;99.90;;;;;;5064925;28;20235;-82
2021/01/12 01:19:49;;;;;;;2.03;1.50;;;2.80;99.90;;;;;;5065638;28;20617;-82
2021/01/12 01:22:15;;;;;;;2.10;1.60;;;2.90;99.90;;;;;;5065605;28;20173;-82
2021/01/12 01:24:40;;;;;;;2.03;1.83;;;2.90;99.90;;;;;;5065587;28;20182;-82
2021/01/12 01:27:06;;;;;;;1.70;1.43;;;2.90;99.90;;;;;;5067000;28;20217;-82
2021/01/12 01:29:32;;;;;;;3.60;1.60;;;2.80;99.90;;;;;;5082564;28;20605;-82
2021/01/12 01:31:58;;;;;;;1.53;1.43;;;2.90;99.90;;;;;;5082715;28;20280;-81
2021/01/12 01:34:23;;;;;;;1.30;1.20;;;2.90;99.90;;;;;;5065675;28;20280;-82
2021/01/12 01:36:49;;;;;;;1.40;1.30;;;2.90;99.90;;;;;;5064570;28;20245;-81
2021/01/12 01:39:15;;;;;;;1.70;1.60;;;2.90;99.90;;;;;;5065506;28;20209;-84
2021/01/12 01:41:40;;;;;;;1.50;1.40;;;2.90;99.90;;;;;;5071415;28;20643;-80
2021/01/12 01:44:07;;;;;;;1.10;1.00;;;2.80;99.90;;;;;;5067349;28;20208;-84
2021/01/12 01:46:32;;;;;;;1.50;1.30;;;2.90;99.90;;;;;;5065747;28;20768;-85
2021/01/12 01:48:58;;;;;;;1.47;1.37;;;3.00;99.90;;;;;;5070423;28;20189;-82
2021/01/12 01:51:25;;;;;;;1.90;1.70;;;3.00;99.90;;;;;;5068672;28;20652;-84
2021/01/12 01:53:51;;;;;;;1.30;1.13;;;3.00;99.90;;;;;;5070223;28;20194;-82
2021/01/12 01:56:17;;;;;;;1.90;1.37;;;2.90;99.90;;;;;;5067247;28;20224;-83
2021/01/12 01:58:43;;;;;;;2.70;1.60;;;3.00;99.90;;;;;;5069004;28;20285;-82
2021/01/12 02:01:11;;;;;;;1.60;1.37;;;3.00;99.90;;;;;;5070032;28;20224;-81
2021/01/12 02:04:08;;;;;;;2.63;2.03;;;3.00;99.90;;;;;;5085992;28;20193;-84
2021/01/12 02:06:36;;;;;;;2.07;1.30;;;3.00;99.90;;;;;;5083869;28;20648;-84
2021/01/12 02:09:23;;;;;;;1.67;1.57;;;3.00;99.90;;;;;;5067847;28;20939;-82
2021/01/12 02:11:55;;;;;;;2.13;1.67;;;3.00;99.90;;;;;;5069295;28;20207;-81
2021/01/12 02:14:22;;;;;;;1.17;1.07;;;3.00;99.90;;;;;;5067811;28;21072;-81
2021/01/12 02:16:50;;;;;;;1.70;1.37;;;3.00;99.90;;;;;;5066959;28;20210;-81
2021/01/12 02:19:22;;;;;;;1.97;1.60;;;2.90;99.90;;;;;;5087259;28;20239;-84
2021/01/12 02:21:53;;;;;;;1.40;1.30;;;3.00;99.90;;;;;;5071545;28;20185;-83
2021/01/12 02:24:19;;;;;;;1.97;1.77;;;2.90;99.90;;;;;;5069606;28;20212;-80
2021/01/12 02:26:45;;;;;;;1.87;1.60;;;2.90;99.90;;;;;;5070249;28;20210;-83
2021/01/12 02:29:11;;;;;;;2.00;1.53;;;2.90;99.90;;;;;;5070017;28;20247;-83
2021/01/12 02:31:38;;;;;;;2.20;1.90;;;2.90;99.90;;;;;;5070232;28;20193;-83
2021/01/12 02:34:07;;;;;;;1.40;1.30;;;2.90;99.90;;;;;;5071202;28;20836;-84
2021/01/12 02:36:33;;;;;;;1.93;1.37;;;2.90;99.90;;;;;;5086724;28;20595;-82
2021/01/12 02:39:00;;;;;;;1.43;1.33;;;2.90;99.90;;;;;;5069175;28;20555;-81
2021/01/12 02:41:34;;;;;;;1.93;1.57;;;2.90;99.90;;;;;;5067415;28;20186;-83
2021/01/12 02:44:01;;;;;;;1.73;1.57;;;2.90;99.90;;;;;;5068701;28;20244;-81
2021/01/12 02:46:27;;;;;;;2.07;1.57;;;2.90;99.90;;;;;;5069927;28;20220;-84
2021/01/12 02:48:53;;;;;;;1.57;1.17;;;2.90;99.90;;;;;;5066708;28;20185;-81
2021/01/12 02:51:19;;;;;;;2.20;1.37;;;3.00;99.90;;;;;;5070500;28;21330;-81
2021/01/12 02:53:45;;;;;;;2.03;1.17;;;3.00;99.90;;;;;;5068376;28;20193;-86
2021/01/12 02:56:10;;;;;;;1.47;1.07;;;3.00;99.90;;;;;;5070820;28;20258;-83
2021/01/12 02:58:36;;;;;;;2.43;1.80;;;3.00;99.90;;;;;;5069164;28;20227;-83
2021/01/12 03:01:02;;;;;;;1.57;1.37;;;3.00;99.90;;;;;;5071678;28;20186;-81
2021/01/12 03:03:28;;;;;;;1.77;1.37;;;3.00;99.90;;;;;;5067290;28;20238;-82
2021/01/12 03:05:53;;;;;;;1.67;1.30;;;3.00;99.90;;;;;;5067775;28;20295;-80
2021/01/12 03:08:20;;;;;;;1.43;1.30;;;2.90;99.90;;;;;;5069446;28;20208;-83
2021/01/12 03:10:45;;;;;;;1.23;0.90;;;3.00;99.90;;;;;;5069538;28;20339;-83
2021/01/12 03:13:11;;;;;;;1.90;1.40;;;2.90;99.90;;;;;;5068050;28;20280;-81
2021/01/12 03:15:38;;;;;;;0.93;0.90;;;2.90;99.90;;;;;;5067206;28;20205;-82
2021/01/12 03:18:06;;;;;;;1.40;1.00;;;3.00;99.90;;;;;;5066823;28;20303;-82
2021/01/12 03:20:32;;;;;;;1.47;1.10;;;2.90;99.90;;;;;;5065629;28;20186;-83
2021/01/12 03:22:58;;;;;;;1.63;1.53;;;3.00;99.90;;;;;;5065583;28;21111;-83
2021/01/12 03:25:24;;;;;;;1.33;1.17;;;3.00;99.90;;;;;;5066045;28;20205;-82
2021/01/12 03:27:50;;;;;;;1.87;1.50;;;3.00;99.90;;;;;;5066358;28;20189;-84
2021/01/12 03:30:16;;;;;;;1.77;1.60;;;3.00;99.90;;;;;;5066580;28;20351;-83
2021/01/12 03:32:42;;;;;;;1.80;1.40;;;3.00;99.90;;;;;;5070095;28;20651;-83
2021/01/12 03:35:12;;;;;;;1.77;1.33;;;3.00;99.90;;;;;;5065511;28;20213;-82
2021/01/12 03:37:38;;;;;;;1.10;1.00;;;3.10;99.90;;;;;;5069787;28;20205;-82
2021/01/12 03:40:05;;;;;;;1.77;0.97;;;3.00;99.90;;;;;;5069901;28;20204;-81
2021/01/12 03:42:31;;;;;;;2.87;1.30;;;3.10;99.90;;;;;;5070492;28;20189;-82
2021/01/12 03:44:56;;;;;;;1.33;1.23;;;3.10;99.90;;;;;;5070654;28;20218;-82
2021/01/12 03:47:22;;;;;;;1.60;1.30;;;3.10;99.90;;;;;;5070646;28;20186;-80
2021/01/12 03:49:48;;;;;;;1.10;0.93;;;3.00;99.90;;;;;;5070916;28;20189;-81
2021/01/12 03:52:14;;;;;;;1.37;1.07;;;3.00;99.90;;;;;;5072263;28;20658;-83
2021/01/12 03:54:39;;;;;;;1.13;1.03;;;3.00;99.90;;;;;;5069855;28;20339;-82
2021/01/12 03:57:05;;;;;;;0.83;0.80;;;3.00;99.90;;;;;;5073527;28;20182;-80
2021/01/12 03:59:30;;;;;;;0.93;0.80;;;3.00;99.90;;;;;;5072183;28;20216;-81
2021/01/12 04:01:56;;;;;;;1.00;0.93;;;3.00;99.90;;;;;;5074258;28;20287;-82
2021/01/12 04:04:21;;;;;;;0.90;0.90;;;3.00;99.90;;;;;;5069852;28;20200;-82
2021/01/12 04:06:47;;;;;;;1.10;0.90;;;3.00;99.90;;;;;;5069771;28;20629;-83
2021/01/12 04:09:12;;;;;;;3.57;1.00;;;3.00;99.90;;;;;;5072179;28;20254;-82
2021/01/12 04:11:39;;;;;;;0.97;0.73;;;3.00;99.90;;;;;;5071953;28;20193;-81
2021/01/12 04:14:06;;;;;;;0.77;0.77;;;3.10;99.90;;;;;;5085262;28;20198;-81
2021/01/12 04:16:32;;;;;;;1.00;0.80;;;3.00;99.90;;;;;;5069120;28;20633;-82
2021/01/12 04:18:58;;;;;;;0.87;0.77;;;3.10;99.90;;;;;;5069899;28;20208;-82
2021/01/12 04:21:24;;;;;;;0.70;0.70;;;3.00;99.90;;;;;;5070907;28;20185;-82
2021/01/12 04:23:49;;;;;;;1.10;1.00;;;3.00;99.90;;;;;;5068841;28;20839;-82
2021/01/12 04:26:15;;;;;;;1.33;1.23;;;2.90;99.90;;;;;;5069240;28;20206;-81
2021/01/12 04:28:40;;;;;;;0.83;0.60;;;3.00;99.90;;;;;;5070222;28;20690;-81
2021/01/12 04:31:06;;;;;;;0.60;0.60;;;2.90;99.90;;;;;;5070527;28;20254;-83
2021/01/12 04:33:32;;;;;;;0.83;0.83;;;2.90;99.90;;;;;;5069713;28;20190;-84
2021/01/12 04:35:57;;;;;;;0.57;0.57;;;3.00;99.90;;;;;;5069175;28;20216;-81
2021/01/12 04:38:23;;;;;;;0.83;0.70;;;3.00;99.90;;;;;;5068035;28;20205;-81
2021/01/12 04:40:48;;;;;;;0.73;0.73;;;2.90;99.90;;;;;;5066419;28;20606;-82
2021/01/12 04:43:14;;;;;;;0.60;0.50;;;3.00;99.90;;;;;;5067961;28;20190;-81
2021/01/12 04:45:40;;;;;;;1.00;0.73;;;3.00;99.90;;;;;;5066061;28;20245;-83
2021/01/12 04:48:07;;;;;;;0.60;0.60;;;3.00;99.90;;;;;;5066224;28;20215;-83
2021/01/12 04:50:33;;;;;;;0.53;0.53;;;3.00;99.90;;;;;;5066396;28;20185;-83
2021/01/12 04:52:59;;;;;;;0.63;0.63;;;3.00;99.90;;;;;;5065856;28;20193;-83
2021/01/12 04:55:24;;;;;;;0.70;0.70;;;3.00;99.90;;;;;;5064330;28;20228;-81
2021/01/12 04:57:51;;;;;;;0.53;0.50;;;3.00;99.90;;;;;;5067310;28;20672;-84
2021/01/12 05:00:26;;;;;;;0.67;0.60;;;3.00;99.90;;;;;;5083004;28;20248;-83
2021/01/12 05:02:59;;;;;;;0.70;0.70;;;3.10;99.90;;;;;;5082769;28;20179;-81
2021/01/12 05:05:33;;;;;;;0.70;0.70;;;3.00;99.90;;;;;;5081217;28;20229;-82
2021/01/12 05:08:00;;;;;;;0.83;0.60;;;3.00;99.90;;;;;;5066742;28;20885;-82
2021/01/12 05:10:26;;;;;;;0.73;0.70;;;3.00;99.90;;;;;;5065858;28;20575;-82
2021/01/12 05:12:52;;;;;;;0.60;0.50;;;3.00;99.90;;;;;;5066205;28;20281;-82
2021/01/12 05:15:20;;;;;;;0.47;0.47;;;3.00;99.90;;;;;;5064880;28;20209;-81
2021/01/12 05:17:49;;;;;;;0.93;0.80;;;3.10;99.90;;;;;;5082339;28;20196;-83
2021/01/12 05:20:22;;;;;;;0.70;0.50;;;3.00;99.90;;;;;;5065923;28;20313;-80
2021/01/12 05:23:03;;;;;;;0.70;0.70;;;3.10;99.90;;;;;;5065295;28;20281;-82
2021/01/12 05:25:33;;;;;;;1.57;0.80;;;3.00;99.90;;;;;;5065069;28;20210;-82
2021/01/12 05:28:01;;;;;;;0.70;0.60;;;3.00;99.90;;;;;;5067293;28;20184;-83
2021/01/12 05:30:27;;;;;;;0.70;0.70;;;3.10;99.90;;;;;;5065680;28;20200;-81
2021/01/12 05:32:54;;;;;;;0.40;0.40;;;3.00;99.90;;;;;;5067308;28;20193;-82
2021/01/12 05:35:20;;;;;;;0.90;0.70;;;3.10;99.90;;;;;;5064578;28;20252;-80
2021/01/12 05:37:46;;;;;;;1.23;1.00;;;3.00;99.90;;;;;;5064106;28;20232;-82
2021/01/12 05:40:12;;;;;;;0.60;0.60;;;3.00;99.90;;;;;;5065379;28;20663;-82
2021/01/12 05:42:39;;;;;;;0.30;0.30;;;3.10;99.90;;;;;;5064854;28;20189;-81
2021/01/12 05:45:06;;;;;;;0.80;0.70;;;3.00;99.90;;;;;;5064784;28;20710;-83
2021/01/12 05:47:32;;;;;;;1.60;0.80;;;3.00;99.90;;;;;;5081949;28;20238;-81
2021/01/12 05:49:59;;;;;;;0.77;0.60;;;3.00;99.90;;;;;;5065410;28;20185;-82
2021/01/12 05:52:26;;;;;;;0.33;0.33;;;3.10;99.90;;;;;;5064733;28;20675;-82
2021/01/12 05:55:05;;;;;;;0.60;0.60;;;3.00;99.90;;;;;;5065300;28;21007;-82
2021/01/12 05:57:37;;;;;;;0.57;0.53;;;3.00;99.90;;;;;;5065643;28;20209;-82
2021/01/12 06:00:05;;;;;;;0.63;0.40;;;3.00;99.90;;;;;;5065197;28;20230;-82
2021/01/12 06:02:33;;;;;;;1.23;0.70;;;3.00;99.90;;;;;;5065616;28;20205;-83
2021/01/12 06:04:59;;;;;;;0.50;0.50;;;3.00;99.90;;;;;;5065663;28;20198;-82
2021/01/12 06:07:27;;;;;;;0.70;0.70;;;3.00;99.90;;;;;;5065274;28;20188;-83
2021/01/12 06:09:54;;;;;;;0.70;0.53;;;3.10;99.90;;;;;;5065200;28;20239;-81
2021/01/12 06:12:24;;;;;;;1.13;1.03;;;3.00;99.90;;;;;;5064604;28;20215;-82
2021/01/12 06:14:51;;;;;;;0.87;0.80;;;3.10;99.90;;;;;;5064365;28;20196;-82
2021/01/12 06:17:17;;;;;;;0.77;0.50;;;3.10;99.90;;;;;;5064446;28;21049;-81
2021/01/12 06:19:48;;;;;;;0.80;0.60;;;3.00;99.90;;;;;;5065004;28;20209;-82
2021/01/12 06:22:17;;;;;;;0.87;0.60;;;3.10;99.90;;;;;;5065164;28;20182;-82
2021/01/12 06:24:58;;;;;;;0.47;0.43;;;3.00;99.90;;;;;;5065986;28;20203;-81
2021/01/12 06:27:26;;;;;;;0.63;0.57;;;3.10;99.90;;;;;;5064619;28;20303;-82
2021/01/12 06:29:52;;;;;;;0.73;0.70;;;3.10;99.90;;;;;;5065459;28;20704;-83
2021/01/12 06:32:23;;;;;;;0.60;0.53;;;3.10;99.90;;;;;;5064734;28;20235;-83
2021/01/12 06:34:53;;;;;;;0.60;0.60;;;3.00;99.90;;;;;;5064574;28;20189;-81
2021/01/12 06:37:20;;;;;;;0.60;0.60;;;3.10;99.90;;;;;;5065868;28;20189;-81
2021/01/12 06:39:57;;;;;;;0.70;0.70;;;3.00;99.90;;;;;;5064502;28;20209;-81
2021/01/12 06:42:25;;;;;;;0.97;0.57;;;3.10;99.90;;;;;;5066062;28;20185;-82
2021/01/12 06:44:53;;;;;;;0.47;0.47;;;3.10;99.90;;;;;;5063994;28;20186;-82
2021/01/12 06:47:23;;;;;;;0.60;0.60;;;3.10;99.90;;;;;;5064812;28;20660;-83
2021/01/12 06:49:49;;;;;;;0.60;0.57;;;3.20;99.90;;;;;;5063504;28;20224;-83
2021/01/12 06:52:16;;;;;;;0.40;0.40;;;3.10;99.90;;;;;;5064487;28;20194;-81
2021/01/12 06:54:43;;;;;;;0.37;0.37;;;3.00;99.90;;;;;;5068369;28;20647;-82
2021/01/12 06:57:12;;;;;;;0.77;0.43;;;3.10;99.90;;;;;;5065590;28;20181;-82
2021/01/12 06:59:39;;;;;;;0.57;0.57;;;3.20;99.90;;;;;;5064301;28;20221;-82
2021/01/12 07:02:19;;;;;;;0.40;0.40;;;3.20;99.90;;;;;;5080225;28;20174;-81
2021/01/12 07:05:04;;;;;;;0.40;0.37;;;3.10;99.90;;;;;;5064618;28;20300;-81
2021/01/12 07:07:31;;;;;;;0.40;0.30;;;3.10;99.90;;;;;;5064981;28;20182;-83
2021/01/12 07:09:59;;;;;;;0.50;0.47;;;3.10;99.90;;;;;;5064334;28;20209;-82
2021/01/12 07:12:27;;;;;;;0.57;0.57;;;3.20;99.90;;;;;;5064170;28;20198;-82
2021/01/12 07:15:01;;;;;;;0.57;0.30;;;3.10;99.90;;;;;;5064769;28;20196;-82
2021/01/12 07:17:31;;;;;;;0.30;0.30;;;3.10;99.90;;;;;;5065690;28;20185;-81
2021/01/12 07:20:13;;;;;;;0.40;0.40;;;3.20;99.90;;;;;;5065379;28;20209;-82
2021/01/12 07:22:41;;;;;;;0.40;0.40;;;3.20;99.90;;;;;;5062584;28;20181;-83
2021/01/12 07:25:09;;;;;;;0.43;0.43;;;3.20;99.90;;;;;;5080662;28;21139;-82
2021/01/12 07:27:36;;;;;;;0.67;0.40;;;3.20;99.90;;;;;;5063736;28;20190;-82
2021/01/12 07:30:05;;;;;;;0.40;0.40;;;3.10;99.90;;;;;;5064159;28;20642;-84
2021/01/12 07:32:38;;;;;;;0.40;0.40;;;3.10;99.90;;;;;;5063602;28;20178;-82
2021/01/12 07:35:09;;;;;;;0.67;0.53;;;3.10;99.90;;;;;;5063392;28;20280;-82
2021/01/12 07:37:41;;;;;;;0.33;0.30;;;3.20;99.90;;;;;;5065791;28;20182;-82
2021/01/12 07:40:09;;;;;;;0.50;0.40;;;3.20;99.90;;;;;;5065231;28;20189;-83
2021/01/12 07:42:45;;;;;;;0.40;0.40;;;3.20;99.90;;;;;;5063060;28;20195;-83
2021/01/12 07:45:11;;;;;;;0.30;0.30;;;3.20;99.90;;;;;;5063318;28;20579;-84
2021/01/12 07:47:37;;;;;;;0.50;0.40;;;3.20;99.90;;;;;;5064895;28;21079;-84
2021/01/12 07:50:03;;;;;;;0.30;0.30;;;3.20;99.90;;;;;;5066154;28;20178;-82
2021/01/12 07:52:29;;;;;;;0.53;0.40;;;3.30;99.90;;;;;;5065270;28;20186;-81
2021/01/12 07:54:54;;;;;;;0.20;0.20;;;3.30;99.90;;;;;;5066203;28;20279;-83
2021/01/12 07:57:22;;;;;;;0.50;0.50;;;3.30;99.90;;;;;;5082374;28;20211;-84
2021/01/12 07:59:48;;;;;;;0.40;0.40;;;3.30;99.90;;;;;;5064720;28;20248;-83
2021/01/12 08:02:14;;;;;;;0.20;0.20;;;3.30;99.90;;;;;;5067722;28;20182;-81
2021/01/12 08:04:40;;;;;;;0.37;0.33;;;3.30;99.90;;;;;;5083207;28;20192;-82
2021/01/12 08:07:07;;;;;;;0.30;0.30;;;3.30;99.90;;;;;;5065338;28;20190;-81
2021/01/12 08:09:33;;;;;;;0.30;0.30;;;3.40;99.90;;;;;;5065148;28;20251;-81
2021/01/12 08:12:04;;;;;;;0.30;0.30;;;3.40;99.90;;;;;;5065255;28;20679;-84
2021/01/12 08:14:30;;;;;;;0.30;0.30;;;3.50;99.90;;;;;;5065822;28;20196;-81
2021/01/12 08:17:03;;;;;;;0.40;0.40;;;3.50;99.90;;;;;;5081027;28;20216;-82
2021/01/12 08:19:29;;;;;;;0.20;0.20;;;3.50;99.90;;;;;;5067468;28;20877;-82
2021/01/12 08:21:55;;;;;;;0.40;0.40;;;3.50;99.90;;;;;;5066402;28;20216;-79
2021/01/12 08:24:22;;;;;;;0.20;0.20;;;3.50;99.90;;;;;;5064247;28;20182;-78
2021/01/12 08:26:48;;;;;;;0.20;0.20;;;3.50;99.90;;;;;;5067606;28;20742;-84
2021/01/12 08:29:19;;;;;;;0.30;0.30;;;3.50;99.90;;;;;;5067576;28;20230;-80
2021/01/12 08:32:05;;;;;;;0.37;0.37;;;3.50;99.90;;;;;;5062417;28;20186;-81
2021/01/12 08:34:39;;;;;;;0.43;0.43;;;3.60;99.90;;;;;;5062426;28;20243;-81
2021/01/12 08:37:07;;;;;;;0.67;0.53;;;3.60;99.90;;;;;;5064165;28;20189;-81
2021/01/12 08:39:34;;;;;;;0.80;0.50;;;3.60;99.90;;;;;;5064509;28;20209;-77
2021/01/12 08:42:04;;;;;;;0.53;0.53;;;3.70;99.90;;;;;;5065055;28;20177;-80
2021/01/12 08:44:34;;;;;;;0.93;0.70;;;3.70;99.90;;;;;;5068088;28;20253;-79
2021/01/12 08:47:04;;;;;;;0.37;0.30;;;3.80;99.90;;;;;;5068834;28;20541;-79
2021/01/12 08:49:31;;;;;;;0.93;0.70;;;3.90;99.90;;;;;;5068808;28;20182;-78
2021/01/12 08:52:00;;;;;;;0.80;0.70;;;3.90;99.90;;;;;;5068384;28;20192;-78
2021/01/12 08:54:26;;;;;;;0.70;0.60;;;3.90;99.90;;;;;;5070249;28;20181;-77
2021/01/12 08:56:59;;;;;;;0.20;0.20;;;3.80;99.90;;;;;;5068837;28;20294;-80
2021/01/12 08:59:29;;;;;;;0.60;0.60;;;3.80;99.90;;;;;;5069529;28;20236;-80
2021/01/12 09:01:56;;;;;;;0.47;0.47;;;3.80;99.90;;;;;;5085947;28;20219;-77
2021/01/12 09:04:22;;;;;;;0.70;0.60;;;3.80;99.90;;;;;;5070321;28;21267;-77
2021/01/12 09:07:06;;;;;;;0.80;0.70;;;3.70;99.90;;;;;;5068808;28;20641;-78
2021/01/12 09:09:32;;;;;;;0.40;0.40;;;3.80;99.90;;;;;;5069343;28;20197;-78
2021/01/12 09:12:00;;;;;;;1.00;0.90;;;3.70;99.90;;;;;;5069125;28;20590;-77
2021/01/12 09:14:32;;;;;;;0.70;0.63;;;3.80;99.90;;;;;;5068105;28;20541;-80
2021/01/12 09:17:04;;;;;;;0.87;0.50;;;3.80;99.90;;;;;;5065833;28;20401;-79
2021/01/12 09:19:35;;;;;;;0.80;0.70;;;3.70;99.90;;;;;;5067835;28;20209;-77
2021/01/12 09:22:15;;;;;;;0.63;0.50;;;3.80;99.90;;;;;;5067814;28;20182;-78
2021/01/12 09:24:54;;;;;;;0.50;0.50;;;3.80;99.90;;;;;;5070650;28;20647;-78
2021/01/12 09:27:22;;;;;;;0.57;0.57;;;3.80;99.90;;;;;;5068799;28;20272;-79
2021/01/12 09:29:48;;;;;;;0.60;0.40;;;3.80;99.90;;;;;;5070414;28;20265;-79
2021/01/12 09:32:32;;;;;;;0.57;0.57;;;3.80;99.90;;;;;;5069644;28;20189;-77
2021/01/12 09:34:59;;;;;;;0.60;0.47;;;3.90;99.90;;;;;;5085621;28;20205;-80
2021/01/12 09:37:25;;;;;;;0.77;0.70;;;3.90;99.90;;;;;;5068582;28;20223;-76
2021/01/12 09:39:55;;;;;;;0.70;0.70;;;4.00;99.90;;;;;;5067686;28;20217;-77
2021/01/12 09:42:24;;;;;;;1.57;0.77;;;4.00;99.90;;;;;;5069635;28;20245;-79
2021/01/12 09:44:53;;;;;;;0.40;0.40;;;4.10;99.90;;;;;;5069644;28;20186;-76
2021/01/12 09:47:20;;;;;;;0.50;0.50;;;4.10;99.90;;;;;;5082857;28;20189;-76
2021/01/12 09:49:46;;;;;;;0.90;0.67;;;4.10;99.90;;;;;;5069022;28;20193;-79
2021/01/12 09:52:12;;;;;;;0.60;0.60;;;4.10;99.90;;;;;;5070254;28;20197;-79
2021/01/12 09:54:45;;;;;;;0.70;0.60;;;4.20;99.90;;;;;;5072080;28;20638;-80
2021/01/12 09:57:14;;;;;;;0.53;0.53;;;4.30;99.90;;;;;;5068973;28;20188;-78
2021/01/12 09:59:40;;;;;;;0.30;0.30;;;4.40;99.90;;;;;;5069424;28;20213;-78
2021/01/12 10:02:06;;;;;;;0.43;0.43;;;4.40;99.90;;;;;;5069835;28;20186;-78
2021/01/12 10:04:32;;;;;;;0.40;0.40;;;4.40;99.90;;;;;;5068248;28;20620;-79
2021/01/12 10:06:59;;;;;;;0.33;0.33;;;4.40;99.90;;;;;;5068852;28;20197;-77
2021/01/12 10:09:26;;;;;;;0.53;0.33;;;4.30;99.90;;;;;;5068576;28;20197;-77
2021/01/12 10:11:52;;;;;;;1.27;0.57;;;4.30;99.90;;;;;;5068619;28;20545;-77
2021/01/12 10:14:18;;;;;;;1.03;0.60;;;4.40;99.90;;;;;;5066397;28;20192;-79
2021/01/12 10:16:44;;;;;;;0.30;0.30;;;4.40;99.90;;;;;;5067486;28;20258;-77
2021/01/12 10:19:10;;;;;;;0.30;0.30;;;4.40;99.90;;;;;;5064968;28;20240;-77
2021/01/12 10:21:35;;;;;;;0.50;0.50;;;4.40;99.90;;;;;;5064906;28;20260;-74
2021/01/12 10:24:02;;;;;;;0.30;0.30;;;4.40;99.90;;;;;;5062617;28;20690;-77
2021/01/12 10:26:27;;;;;;;0.33;0.33;;;4.50;99.90;;;;;;5069305;28;20793;-81
2021/01/12 10:28:53;;;;;;;0.70;0.60;;;4.30;99.90;;;;;;5070855;28;20185;-76
2021/01/12 10:31:20;;;;;;;0.60;0.40;;;4.40;99.90;;;;;;5070100;28;20193;-79
2021/01/12 10:33:46;;;;;;;0.20;0.20;;;4.30;99.90;;;;;;5069793;28;20248;-79
2021/01/12 10:36:16;;;;;;;0.37;0.37;;;4.30;99.90;;;;;;5071436;28;20711;-81
2021/01/12 10:38:42;;;;;;;0.30;0.30;;;4.30;99.90;;;;;;5068407;28;20893;-80
2021/01/12 10:41:08;;;;;;;0.30;0.30;;;4.40;99.90;;;;;;5069714;28;20285;-78
2021/01/12 10:43:34;;;;;;;0.93;0.47;;;4.40;99.90;;;;;;5070392;28;20188;-78
2021/01/12 10:46:00;;;;;;;0.67;0.60;;;4.30;99.90;;;;;;5070230;28;20286;-77
2021/01/12 10:48:27;;;;;;;0.30;0.30;;;4.40;99.90;;;;;;5069581;28;20191;-77
2021/01/12 10:50:53;;;;;;;0.50;0.50;;;4.40;99.90;;;;;;5071413;28;20436;-77
2021/01/12 10:53:19;;;;;;;0.40;0.40;;;4.40;99.90;;;;;;5071404;28;20188;-79
2021/01/12 10:55:45;;;;;;;0.40;0.40;;;4.30;99.90;;;;;;5068928;28;20678;-78
2021/01/12 10:58:10;;;;;;;0.33;0.30;;;4.30;99.90;;;;;;5069204;28;20197;-78
2021/01/12 11:00:36;;;;;;;0.43;0.43;;;4.30;99.90;;;;;;5070557;28;20767;-79
2021/01/12 11:03:04;;;;;;;0.67;0.40;;;4.20;99.90;;;;;;5068954;28;20185;-79
2021/01/12 11:05:29;;;;;;;0.43;0.43;;;4.10;99.90;;;;;;5066825;28;20212;-79
2021/01/12 11:07:55;;;;;;;0.30;0.30;;;4.10;99.90;;;;;;5070685;28;20177;-79
2021/01/12 11:10:21;;;;;;;0.57;0.53;;;4.10;99.90;;;;;;5071364;28;20721;-78
2021/01/12 11:12:47;;;;;;;0.40;0.40;;;4.00;99.90;;;;;;5069277;28;20272;-77
2021/01/12 11:15:14;;;;;;;0.30;0.30;;;4.00;99.90;;;;;;5067376;28;20193;-79
2021/01/12 11:17:39;;;;;;;0.50;0.50;;;4.00;99.90;;;;;;5069066;28;20700;-76
2021/01/12 11:20:07;;;;;;;0.70;0.53;;;4.00;99.90;;;;;;5072696;28;20703;-77
2021/01/12 11:22:32;;;;;;;0.60;0.60;;;3.90;99.90;;;;;;5072039;28;20656;-76
2021/01/12 11:25:03;;;;;;;0.40;0.40;;;3.90;99.90;;;;;;5071395;28;20237;-78
2021/01/12 11:27:33;;;;;;;1.30;0.70;;;3.90;99.90;;;;;;5070105;28;20221;-77
2021/01/12 11:29:59;;;;;;;0.83;0.80;;;3.90;99.90;;;;;;5072330;28;20220;-77
2021/01/12 11:32:25;;;;;;;0.50;0.50;;;3.90;99.90;;;;;;5069884;28;20216;-79
2021/01/12 11:34:51;;;;;;;0.20;0.20;;;4.00;99.90;;;;;;5070552;28;21105;-78
2021/01/12 11:37:17;;;;;;;0.20;0.20;;;4.00;99.90;;;;;;5070957;28;20190;-79
2021/01/12 11:39:43;;;;;;;0.20;0.20;;;3.90;99.90;;;;;;5068917;28;20266;-76
2021/01/12 11:42:11;;;;;;;0.10;0.10;;;3.70;99.90;;;;;;5066674;28;20177;-79
2021/01/12 11:44:37;;;;;;;0.10;0.10;;;3.50;99.90;;;;;;5065245;28;20178;-80
2021/01/12 11:47:03;;;;;;;0.17;0.17;;;3.40;99.90;;;;;;5065846;28;20207;-80
2021/01/12 11:49:28;;;;;;;0.10;0.10;;;3.30;99.90;;;;;;5066432;28;20220;-80
2021/01/12 11:51:54;;;;;;;0.20;0.20;;;3.30;99.90;;;;;;5064719;28;20231;-78
2021/01/12 11:54:20;;;;;;;0.20;0.20;;;3.30;99.90;;;;;;5065460;28;20193;-78
2021/01/12 11:56:50;;;;;;;0.13;0.13;;;3.10;99.90;;;;;;5064171;28;20220;-80
2021/01/12 11:59:16;;;;;;;0.43;0.43;;;3.00;99.90;;;;;;5066485;28;20204;-82
2021/01/12 12:01:43;;;;;;;0.70;0.60;;;3.00;99.90;;;;;;5067634;28;20177;-80
2021/01/12 12:04:09;;;;;;;1.37;0.63;;;3.00;99.90;;;;;;5068737;28;20196;-79
2021/01/12 12:06:35;;;;;;;0.33;0.33;;;3.00;99.90;;;;;;5069536;28;20201;-81
2021/01/12 12:09:00;;;;;;;1.40;0.43;;;3.10;99.90;;;;;;5073050;28;20190;-80
2021/01/12 12:11:26;;;;;;;0.37;0.30;;;3.00;99.90;;;;;;5071073;28;20189;-77
2021/01/12 12:13:52;;;;;;;0.80;0.40;;;3.00;99.90;;;;;;5072305;28;20675;-77
2021/01/12 12:16:18;;;;;;;1.90;0.60;;;2.90;99.90;;;;;;5068424;28;20331;-80
2021/01/12 12:18:45;;;;;;;1.90;1.20;;;2.90;99.90;;;;;;5065602;28;20244;-79
2021/01/12 12:21:15;;;;;;;0.40;0.30;;;2.90;99.90;;;;;;5065486;28;20223;-79
2021/01/12 12:23:42;;;;;;;0.23;0.20;;;2.80;99.90;;;;;;5066524;28;20186;-77
2021/01/12 12:26:15;;;;;;;0.60;0.60;;;2.90;99.90;;;;;;5081525;28;20209;-78
2021/01/12 12:28:42;;;;;;;0.40;0.40;;;2.80;99.90;;;;;;5064777;28;20194;-80
2021/01/12 12:31:11;;;;;;;0.40;0.40;;;2.90;99.90;;;;;;5064918;28;20197;-78
2021/01/12 12:33:38;;;;;;;0.97;0.70;;;2.90;99.90;;;;;;5065181;28;20250;-80
2021/01/12 12:36:15;;;;;;;2.00;0.93;;;2.90;99.90;;;;;;5066381;28;20214;-79
2021/01/12 12:38:41;;;;;;;1.10;0.87;;;2.90;99.90;;;;;;5065555;28;20220;-80
2021/01/12 12:41:15;;;;;;;1.40;1.07;;;2.90;99.90;;;;;;5068604;28;20201;-80
2021/01/12 12:43:42;;;;;;;0.53;0.40;;;3.00;99.90;;;;;;5069308;28;20181;-78
2021/01/12 12:46:09;;;;;;;1.50;0.77;;;3.10;99.90;;;;;;5066600;28;20213;-81
2021/01/12 12:48:37;;;;;;;2.73;1.00;;;3.10;99.90;;;;;;5067919;28;20239;-80
2021/01/12 12:51:06;;;;;;;1.80;1.10;;;3.00;99.90;;;;;;5067862;28;20951;-81
2021/01/12 12:53:36;;;;;;;1.50;0.90;;;3.00;99.90;;;;;;5066381;28;20201;-80
2021/01/12 12:56:03;;;;;;;1.13;1.03;;;3.00;99.90;;;;;;5065685;28;20213;-79
2021/01/12 12:58:30;;;;;;;1.40;1.27;;;2.90;99.90;;;;;;5066608;28;20214;-84
2021/01/12 13:00:56;;;;;;;2.27;1.83;;;3.00;99.90;;;;;;5083851;28;20217;-79